sensor_id;sensor_type;location;lat;lon;timestamp;pressure;altitude;pressure_sealevel;temperature;humidity
73453;BME280;61687;56.232;43.854;2023-10-31T00:01:51;99869.63;;;4.13;77.66
73453;BME280;61687;56.232;43.854;2023-10-31T00:04:17;99864.53;;;4.12;77.66
73453;BME280;61687;56.232;43.854;2023-10-31T00:06:43;99870.75;;;4.12;77.55
73453;BME280;61687;56.232;43.854;2023-10-31T00:09:09;99865.00;;;4.14;77.52
73453;BME280;61687;56.232;43.854;2023-10-31T00:11:36;99872.34;;;4.13;77.45
73453;BME280;61687;56.232;43.854;2023-10-31T00:14:03;99865.34;;;4.12;77.31
73453;BME280;61687;56.232;43.854;2023-10-31T00:16:29;99855.25;;;4.13;77.43
73453;BME280;61687;56.232;43.854;2023-10-31T00:18:55;99852.09;;;4.11;77.46
73453;BME280;61687;56.232;43.854;2023-10-31T00:21:21;99854.03;;;4.10;77.39
73453;BME280;61687;56.232;43.854;2023-10-31T00:23:48;99863.41;;;4.13;77.63
73453;BME280;61687;56.232;43.854;2023-10-31T00:26:14;99852.09;;;4.11;77.98
73453;BME280;61687;56.232;43.854;2023-10-31T00:28:48;99849.84;;;4.13;78.11
73453;BME280;61687;56.232;43.854;2023-10-31T00:31:14;99852.38;;;4.18;78.22
73453;BME280;61687;56.232;43.854;2023-10-31T00:33:40;99862.53;;;4.21;78.32
73453;BME280;61687;56.232;43.854;2023-10-31T00:36:06;99847.16;;;4.25;78.26
73453;BME280;61687;56.232;43.854;2023-10-31T00:38:33;99843.91;;;4.32;78.41
73453;BME280;61687;56.232;43.854;2023-10-31T00:40:59;99839.84;;;4.38;78.46
73453;BME280;61687;56.232;43.854;2023-10-31T00:43:25;99837.59;;;4.40;78.51
73453;BME280;61687;56.232;43.854;2023-10-31T00:45:51;99828.66;;;4.40;78.87
73453;BME280;61687;56.232;43.854;2023-10-31T00:48:18;99822.78;;;4.38;78.93
73453;BME280;61687;56.232;43.854;2023-10-31T00:50:45;99829.81;;;4.39;79.22
73453;BME280;61687;56.232;43.854;2023-10-31T00:53:11;99815.88;;;4.40;79.35
73453;BME280;61687;56.232;43.854;2023-10-31T00:55:37;99816.69;;;4.41;79.55
73453;BME280;61687;56.232;43.854;2023-10-31T00:58:03;99816.00;;;4.44;79.56
73453;BME280;61687;56.232;43.854;2023-10-31T01:00:29;99835.13;;;4.48;79.54
73453;BME280;61687;56.232;43.854;2023-10-31T01:02:56;99832.06;;;4.49;79.66
73453;BME280;61687;56.232;43.854;2023-10-31T01:05:22;99824.03;;;4.53;79.70
73453;BME280;61687;56.232;43.854;2023-10-31T01:07:48;99815.53;;;4.54;79.78
73453;BME280;61687;56.232;43.854;2023-10-31T01:10:14;99821.09;;;4.58;79.71
73453;BME280;61687;56.232;43.854;2023-10-31T01:12:40;99826.97;;;4.60;79.68
73453;BME280;61687;56.232;43.854;2023-10-31T01:15:06;99826.66;;;4.62;79.78
73453;BME280;61687;56.232;43.854;2023-10-31T01:17:32;99826.75;;;4.65;80.03
73453;BME280;61687;56.232;43.854;2023-10-31T01:19:58;99822.13;;;4.66;80.08
73453;BME280;61687;56.232;43.854;2023-10-31T01:22:24;99817.59;;;4.70;80.04
73453;BME280;61687;56.232;43.854;2023-10-31T01:24:50;99815.31;;;4.72;80.11
73453;BME280;61687;56.232;43.854;2023-10-31T01:27:16;99813.88;;;4.75;80.13
73453;BME280;61687;56.232;43.854;2023-10-31T01:29:42;99817.72;;;4.73;80.15
73453;BME280;61687;56.232;43.854;2023-10-31T01:32:08;99825.94;;;4.77;80.31
73453;BME280;61687;56.232;43.854;2023-10-31T01:34:34;99827.00;;;4.72;80.40
73453;BME280;61687;56.232;43.854;2023-10-31T01:37:00;99825.06;;;4.73;80.67
73453;BME280;61687;56.232;43.854;2023-10-31T01:39:26;99818.03;;;4.72;80.75
73453;BME280;61687;56.232;43.854;2023-10-31T01:41:52;99813.75;;;4.71;80.79
73453;BME280;61687;56.232;43.854;2023-10-31T01:44:20;99807.63;;;4.74;80.69
73453;BME280;61687;56.232;43.854;2023-10-31T01:46:47;99817.94;;;4.81;80.59
73453;BME280;61687;56.232;43.854;2023-10-31T01:49:13;99823.94;;;4.86;80.44
73453;BME280;61687;56.232;43.854;2023-10-31T01:51:44;99815.78;;;4.86;80.38
73453;BME280;61687;56.232;43.854;2023-10-31T01:54:13;99816.69;;;4.91;80.32
73453;BME280;61687;56.232;43.854;2023-10-31T01:56:40;99825.28;;;4.93;80.34
73453;BME280;61687;56.232;43.854;2023-10-31T01:59:07;99833.41;;;4.93;80.37
73453;BME280;61687;56.232;43.854;2023-10-31T02:01:38;99832.72;;;4.96;80.38
73453;BME280;61687;56.232;43.854;2023-10-31T02:04:05;99830.47;;;4.98;80.20
73453;BME280;61687;56.232;43.854;2023-10-31T02:06:31;99827.75;;;4.98;80.15
73453;BME280;61687;56.232;43.854;2023-10-31T02:08:57;99841.00;;;4.99;79.98
73453;BME280;61687;56.232;43.854;2023-10-31T02:11:23;99811.94;;;4.87;80.16
73453;BME280;61687;56.232;43.854;2023-10-31T02:13:49;99826.66;;;4.86;80.31
73453;BME280;61687;56.232;43.854;2023-10-31T02:16:15;99826.06;;;4.81;80.54
73453;BME280;61687;56.232;43.854;2023-10-31T02:18:42;99823.03;;;4.82;80.77
73453;BME280;61687;56.232;43.854;2023-10-31T02:21:08;99824.69;;;4.87;80.75
73453;BME280;61687;56.232;43.854;2023-10-31T02:23:34;99816.69;;;4.91;80.69
73453;BME280;61687;56.232;43.854;2023-10-31T02:26:01;99819.16;;;4.96;80.68
73453;BME280;61687;56.232;43.854;2023-10-31T02:28:29;99825.16;;;5.01;80.84
73453;BME280;61687;56.232;43.854;2023-10-31T02:30:57;99825.50;;;5.00;80.94
73453;BME280;61687;56.232;43.854;2023-10-31T02:33:23;99826.03;;;5.06;81.01
73453;BME280;61687;56.232;43.854;2023-10-31T02:35:50;99841.78;;;5.12;80.82
73453;BME280;61687;56.232;43.854;2023-10-31T02:38:16;99832.84;;;5.12;80.86
73453;BME280;61687;56.232;43.854;2023-10-31T02:40:43;99835.22;;;5.13;81.01
73453;BME280;61687;56.232;43.854;2023-10-31T02:43:09;99839.63;;;5.18;81.06
73453;BME280;61687;56.232;43.854;2023-10-31T02:45:35;99850.81;;;5.16;81.26
73453;BME280;61687;56.232;43.854;2023-10-31T02:48:01;99845.81;;;5.19;81.31
73453;BME280;61687;56.232;43.854;2023-10-31T02:50:27;99863.72;;;5.20;81.55
73453;BME280;61687;56.232;43.854;2023-10-31T02:52:54;99870.16;;;5.27;82.10
73453;BME280;61687;56.232;43.854;2023-10-31T02:55:20;99881.81;;;5.28;82.97
73453;BME280;61687;56.232;43.854;2023-10-31T02:57:46;99876.97;;;5.34;83.01
73453;BME280;61687;56.232;43.854;2023-10-31T03:00:13;99883.28;;;5.38;83.86
73453;BME280;61687;56.232;43.854;2023-10-31T03:02:39;99884.38;;;5.49;83.94
73453;BME280;61687;56.232;43.854;2023-10-31T03:05:06;99877.91;;;5.54;83.80
73453;BME280;61687;56.232;43.854;2023-10-31T03:07:32;99885.94;;;5.63;83.87
73453;BME280;61687;56.232;43.854;2023-10-31T03:09:58;99887.28;;;5.69;85.42
73453;BME280;61687;56.232;43.854;2023-10-31T03:12:25;99888.63;;;5.75;85.68
73453;BME280;61687;56.232;43.854;2023-10-31T03:14:51;99891.66;;;5.86;86.13
73453;BME280;61687;56.232;43.854;2023-10-31T03:17:17;99891.75;;;5.90;86.25
73453;BME280;61687;56.232;43.854;2023-10-31T03:19:45;99895.72;;;5.92;86.25
73453;BME280;61687;56.232;43.854;2023-10-31T03:22:11;99906.00;;;5.99;86.28
73453;BME280;61687;56.232;43.854;2023-10-31T03:24:37;99899.09;;;6.01;86.61
73453;BME280;61687;56.232;43.854;2023-10-31T03:27:04;99913.50;;;6.02;86.80
73453;BME280;61687;56.232;43.854;2023-10-31T03:29:30;99913.34;;;5.98;86.90
73453;BME280;61687;56.232;43.854;2023-10-31T03:31:57;99917.22;;;5.97;86.74
73453;BME280;61687;56.232;43.854;2023-10-31T03:34:23;99917.22;;;5.97;86.61
73453;BME280;61687;56.232;43.854;2023-10-31T03:36:49;99931.25;;;5.99;86.54
73453;BME280;61687;56.232;43.854;2023-10-31T03:39:15;99939.41;;;5.99;86.40
73453;BME280;61687;56.232;43.854;2023-10-31T03:41:41;99947.13;;;5.97;86.25
73453;BME280;61687;56.232;43.854;2023-10-31T03:44:08;99947.81;;;5.94;86.44
73453;BME280;61687;56.232;43.854;2023-10-31T03:46:34;99952.47;;;5.94;86.50
73453;BME280;61687;56.232;43.854;2023-10-31T03:49:00;99959.66;;;5.86;86.56
73453;BME280;61687;56.232;43.854;2023-10-31T03:51:27;99960.09;;;5.88;86.41
73453;BME280;61687;56.232;43.854;2023-10-31T03:53:53;99955.34;;;5.85;86.42
73453;BME280;61687;56.232;43.854;2023-10-31T03:56:19;99961.34;;;5.78;86.65
73453;BME280;61687;56.232;43.854;2023-10-31T03:58:45;99963.72;;;5.80;86.51
73453;BME280;61687;56.232;43.854;2023-10-31T04:01:12;99966.88;;;5.82;86.17
73453;BME280;61687;56.232;43.854;2023-10-31T04:03:37;99987.75;;;5.78;86.50
73453;BME280;61687;56.232;43.854;2023-10-31T04:06:04;99988.56;;;5.78;86.12
73453;BME280;61687;56.232;43.854;2023-10-31T04:08:30;99991.50;;;5.73;86.37
73453;BME280;61687;56.232;43.854;2023-10-31T04:10:56;100002.03;;;5.75;86.26
73453;BME280;61687;56.232;43.854;2023-10-31T04:13:22;100000.78;;;5.72;86.52
73453;BME280;61687;56.232;43.854;2023-10-31T04:15:48;100017.09;;;5.72;86.44
73453;BME280;61687;56.232;43.854;2023-10-31T04:18:14;100008.84;;;5.68;86.63
73453;BME280;61687;56.232;43.854;2023-10-31T04:20:40;100019.47;;;5.73;86.48
73453;BME280;61687;56.232;43.854;2023-10-31T04:23:07;100021.06;;;5.75;86.27
73453;BME280;61687;56.232;43.854;2023-10-31T04:25:34;100029.22;;;5.75;86.13
73453;BME280;61687;56.232;43.854;2023-10-31T04:27:59;100031.25;;;5.78;86.07
73453;BME280;61687;56.232;43.854;2023-10-31T04:30:25;100035.09;;;5.77;85.90
73453;BME280;61687;56.232;43.854;2023-10-31T04:32:53;100040.78;;;5.71;86.08
73453;BME280;61687;56.232;43.854;2023-10-31T04:35:19;100051.09;;;5.78;85.98
73453;BME280;61687;56.232;43.854;2023-10-31T04:37:45;100067.28;;;5.75;85.96
73453;BME280;61687;56.232;43.854;2023-10-31T04:40:12;100058.22;;;5.70;86.04
73453;BME280;61687;56.232;43.854;2023-10-31T04:42:41;100068.28;;;5.70;86.21
73453;BME280;61687;56.232;43.854;2023-10-31T04:45:07;100076.13;;;5.71;86.32
73453;BME280;61687;56.232;43.854;2023-10-31T04:47:34;100081.13;;;5.69;86.33
73453;BME280;61687;56.232;43.854;2023-10-31T04:50:00;100093.56;;;5.70;86.56
73453;BME280;61687;56.232;43.854;2023-10-31T04:52:26;100096.75;;;5.72;86.49
73453;BME280;61687;56.232;43.854;2023-10-31T04:54:52;100091.75;;;5.75;86.39
73453;BME280;61687;56.232;43.854;2023-10-31T04:57:18;100103.75;;;5.73;86.43
73453;BME280;61687;56.232;43.854;2023-10-31T04:59:44;100114.31;;;5.75;86.38
73453;BME280;61687;56.232;43.854;2023-10-31T05:02:10;100122.13;;;5.77;86.32
73453;BME280;61687;56.232;43.854;2023-10-31T05:04:39;100129.03;;;5.74;86.30
73453;BME280;61687;56.232;43.854;2023-10-31T05:07:06;100131.97;;;5.81;85.81
73453;BME280;61687;56.232;43.854;2023-10-31T05:09:32;100139.66;;;5.67;86.13
73453;BME280;61687;56.232;43.854;2023-10-31T05:11:57;100152.47;;;5.66;86.21
73453;BME280;61687;56.232;43.854;2023-10-31T05:14:23;100163.81;;;5.68;85.94
73453;BME280;61687;56.232;43.854;2023-10-31T05:16:49;100154.53;;;5.69;85.75
73453;BME280;61687;56.232;43.854;2023-10-31T05:19:15;100163.81;;;5.68;85.79
73453;BME280;61687;56.232;43.854;2023-10-31T05:21:41;100176.50;;;5.64;86.16
73453;BME280;61687;56.232;43.854;2023-10-31T05:24:07;100178.41;;;5.64;85.88
73453;BME280;61687;56.232;43.854;2023-10-31T05:26:34;100173.09;;;5.67;85.68
73453;BME280;61687;56.232;43.854;2023-10-31T05:29:00;100181.72;;;5.69;85.69
73453;BME280;61687;56.232;43.854;2023-10-31T05:31:26;100196.66;;;5.76;85.09
73453;BME280;61687;56.232;43.854;2023-10-31T05:33:52;100203.59;;;5.73;84.84
73453;BME280;61687;56.232;43.854;2023-10-31T05:36:19;100210.41;;;5.79;84.17
73453;BME280;61687;56.232;43.854;2023-10-31T05:38:45;100216.84;;;5.75;83.85
73453;BME280;61687;56.232;43.854;2023-10-31T05:41:12;100213.34;;;5.74;83.96
73453;BME280;61687;56.232;43.854;2023-10-31T05:43:38;100228.63;;;5.79;83.56
73453;BME280;61687;56.232;43.854;2023-10-31T05:46:04;100226.34;;;5.81;82.90
73453;BME280;61687;56.232;43.854;2023-10-31T05:48:31;100232.00;;;5.76;82.85
73453;BME280;61687;56.232;43.854;2023-10-31T05:50:56;100229.75;;;5.65;83.18
73453;BME280;61687;56.232;43.854;2023-10-31T05:53:22;100241.59;;;5.61;83.00
73453;BME280;61687;56.232;43.854;2023-10-31T05:55:48;100268.84;;;5.73;82.73
73453;BME280;61687;56.232;43.854;2023-10-31T05:58:14;100245.16;;;5.73;82.17
73453;BME280;61687;56.232;43.854;2023-10-31T06:00:40;100255.56;;;5.71;81.51
73453;BME280;61687;56.232;43.854;2023-10-31T06:03:06;100265.66;;;5.71;81.34
73453;BME280;61687;56.232;43.854;2023-10-31T06:05:32;100270.97;;;5.67;81.25
73453;BME280;61687;56.232;43.854;2023-10-31T06:07:58;100277.72;;;5.61;81.37
73453;BME280;61687;56.232;43.854;2023-10-31T06:10:24;100271.16;;;5.62;81.01
73453;BME280;61687;56.232;43.854;2023-10-31T06:12:49;100275.59;;;5.67;81.04
73453;BME280;61687;56.232;43.854;2023-10-31T06:15:15;100291.81;;;5.63;80.65
73453;BME280;61687;56.232;43.854;2023-10-31T06:17:41;100280.44;;;5.61;80.55
73453;BME280;61687;56.232;43.854;2023-10-31T06:20:08;100287.75;;;5.69;80.24
73453;BME280;61687;56.232;43.854;2023-10-31T06:22:34;100285.44;;;5.59;80.56
73453;BME280;61687;56.232;43.854;2023-10-31T06:25:00;100288.97;;;5.72;79.82
73453;BME280;61687;56.232;43.854;2023-10-31T06:27:27;100298.94;;;5.68;79.79
73453;BME280;61687;56.232;43.854;2023-10-31T06:29:53;100297.28;;;5.76;78.80
73453;BME280;61687;56.232;43.854;2023-10-31T06:32:20;100293.97;;;5.70;78.74
73453;BME280;61687;56.232;43.854;2023-10-31T06:34:46;100293.84;;;5.66;78.56
73453;BME280;61687;56.232;43.854;2023-10-31T06:37:12;100295.22;;;5.72;78.15
73453;BME280;61687;56.232;43.854;2023-10-31T06:39:38;100308.81;;;5.72;78.22
73453;BME280;61687;56.232;43.854;2023-10-31T06:42:04;100317.78;;;5.73;77.50
73453;BME280;61687;56.232;43.854;2023-10-31T06:44:30;100315.78;;;5.61;77.61
73453;BME280;61687;56.232;43.854;2023-10-31T06:46:56;100336.75;;;5.61;78.00
73453;BME280;61687;56.232;43.854;2023-10-31T06:49:22;100339.63;;;5.64;77.01
73453;BME280;61687;56.232;43.854;2023-10-31T06:51:49;100336.69;;;5.69;77.05
73453;BME280;61687;56.232;43.854;2023-10-31T06:54:15;100354.25;;;5.72;76.25
73453;BME280;61687;56.232;43.854;2023-10-31T06:56:41;100357.38;;;5.62;76.00
73453;BME280;61687;56.232;43.854;2023-10-31T06:59:06;100355.34;;;5.58;76.21
73453;BME280;61687;56.232;43.854;2023-10-31T07:01:34;100356.78;;;5.56;76.29
73453;BME280;61687;56.232;43.854;2023-10-31T07:04:00;100377.75;;;5.55;76.32
73453;BME280;61687;56.232;43.854;2023-10-31T07:06:26;100383.50;;;5.54;76.30
73453;BME280;61687;56.232;43.854;2023-10-31T07:08:52;100382.94;;;5.39;76.47
73453;BME280;61687;56.232;43.854;2023-10-31T07:11:18;100389.50;;;5.38;76.41
73453;BME280;61687;56.232;43.854;2023-10-31T07:13:43;100396.44;;;5.36;76.47
73453;BME280;61687;56.232;43.854;2023-10-31T07:16:10;100392.59;;;5.37;76.64
73453;BME280;61687;56.232;43.854;2023-10-31T07:18:35;100409.97;;;5.44;76.27
73453;BME280;61687;56.232;43.854;2023-10-31T07:21:03;100409.34;;;5.39;76.27
73453;BME280;61687;56.232;43.854;2023-10-31T07:23:29;100416.19;;;5.45;76.00
73453;BME280;61687;56.232;43.854;2023-10-31T07:25:54;100416.19;;;5.45;76.32
73453;BME280;61687;56.232;43.854;2023-10-31T07:28:20;100415.09;;;5.37;76.54
73453;BME280;61687;56.232;43.854;2023-10-31T07:30:46;100439.25;;;5.39;75.72
73453;BME280;61687;56.232;43.854;2023-10-31T07:33:12;100467.75;;;5.33;75.74
73453;BME280;61687;56.232;43.854;2023-10-31T07:35:38;100461.25;;;5.16;76.39
73453;BME280;61687;56.232;43.854;2023-10-31T07:38:03;100466.97;;;5.23;76.40
73453;BME280;61687;56.232;43.854;2023-10-31T07:40:29;100467.88;;;4.97;77.08
73453;BME280;61687;56.232;43.854;2023-10-31T07:42:55;100474.25;;;5.01;77.47
73453;BME280;61687;56.232;43.854;2023-10-31T07:45:21;100484.78;;;5.12;77.03
73453;BME280;61687;56.232;43.854;2023-10-31T07:47:47;100482.59;;;4.96;77.31
73453;BME280;61687;56.232;43.854;2023-10-31T07:50:13;100484.47;;;5.05;76.89
73453;BME280;61687;56.232;43.854;2023-10-31T07:52:39;100485.56;;;5.12;76.72
73453;BME280;61687;56.232;43.854;2023-10-31T07:55:05;100498.31;;;5.21;76.13
73453;BME280;61687;56.232;43.854;2023-10-31T07:57:31;100500.50;;;5.27;76.00
73453;BME280;61687;56.232;43.854;2023-10-31T07:59:57;100498.25;;;5.29;75.70
73453;BME280;61687;56.232;43.854;2023-10-31T08:02:23;100500.38;;;5.24;75.27
73453;BME280;61687;56.232;43.854;2023-10-31T08:04:48;100492.88;;;5.21;76.06
73453;BME280;61687;56.232;43.854;2023-10-31T08:07:14;100493.06;;;5.15;75.57
73453;BME280;61687;56.232;43.854;2023-10-31T08:09:40;100505.38;;;5.13;75.31
73453;BME280;61687;56.232;43.854;2023-10-31T08:12:06;100493.09;;;4.98;76.06
73453;BME280;61687;56.232;43.854;2023-10-31T08:14:32;100489.69;;;5.19;75.59
73453;BME280;61687;56.232;43.854;2023-10-31T08:17:00;100497.06;;;5.09;75.56
73453;BME280;61687;56.232;43.854;2023-10-31T08:19:25;100490.53;;;5.10;75.34
73453;BME280;61687;56.232;43.854;2023-10-31T08:21:51;100496.66;;;4.90;76.10
73453;BME280;61687;56.232;43.854;2023-10-31T08:24:18;100498.97;;;5.09;76.00
73453;BME280;61687;56.232;43.854;2023-10-31T08:26:43;100504.22;;;5.23;74.83
73453;BME280;61687;56.232;43.854;2023-10-31T08:29:10;100513.66;;;5.16;75.13
73453;BME280;61687;56.232;43.854;2023-10-31T08:31:35;100521.03;;;5.16;75.29
73453;BME280;61687;56.232;43.854;2023-10-31T08:34:01;100519.66;;;5.01;75.83
73453;BME280;61687;56.232;43.854;2023-10-31T08:36:29;100528.38;;;5.15;75.65
73453;BME280;61687;56.232;43.854;2023-10-31T08:38:55;100531.13;;;4.98;75.66
73453;BME280;61687;56.232;43.854;2023-10-31T08:41:21;100536.84;;;5.14;75.86
73453;BME280;61687;56.232;43.854;2023-10-31T08:43:48;100530.41;;;5.27;75.11
73453;BME280;61687;56.232;43.854;2023-10-31T08:46:14;100531.09;;;5.15;75.14
73453;BME280;61687;56.232;43.854;2023-10-31T08:48:39;100541.47;;;5.22;75.41
73453;BME280;61687;56.232;43.854;2023-10-31T08:51:05;100543.06;;;5.14;75.41
73453;BME280;61687;56.232;43.854;2023-10-31T08:53:31;100551.91;;;5.03;75.90
73453;BME280;61687;56.232;43.854;2023-10-31T08:55:57;100569.13;;;5.15;75.62
73453;BME280;61687;56.232;43.854;2023-10-31T08:58:23;100582.22;;;5.22;75.20
73453;BME280;61687;56.232;43.854;2023-10-31T09:00:49;100594.50;;;5.20;75.70
73453;BME280;61687;56.232;43.854;2023-10-31T09:03:15;100606.34;;;5.24;75.59
73453;BME280;61687;56.232;43.854;2023-10-31T09:05:41;100621.84;;;5.23;75.43
73453;BME280;61687;56.232;43.854;2023-10-31T09:08:06;100629.22;;;5.23;75.60
73453;BME280;61687;56.232;43.854;2023-10-31T09:10:35;100630.34;;;5.13;75.97
73453;BME280;61687;56.232;43.854;2023-10-31T09:13:05;100637.03;;;5.24;75.87
73453;BME280;61687;56.232;43.854;2023-10-31T09:15:31;100653.03;;;5.08;76.27
73453;BME280;61687;56.232;43.854;2023-10-31T09:17:56;100649.69;;;5.11;75.94
73453;BME280;61687;56.232;43.854;2023-10-31T09:20:22;100658.00;;;5.06;75.91
73453;BME280;61687;56.232;43.854;2023-10-31T09:22:48;100661.84;;;4.96;76.39
73453;BME280;61687;56.232;43.854;2023-10-31T09:25:14;100669.81;;;4.93;76.16
73453;BME280;61687;56.232;43.854;2023-10-31T09:27:40;100676.19;;;4.88;76.72
73453;BME280;61687;56.232;43.854;2023-10-31T09:30:07;100681.81;;;5.00;76.42
73453;BME280;61687;56.232;43.854;2023-10-31T09:32:33;100687.06;;;5.06;76.18
73453;BME280;61687;56.232;43.854;2023-10-31T09:34:59;100688.34;;;4.99;76.35
73453;BME280;61687;56.232;43.854;2023-10-31T09:37:24;100696.69;;;5.03;76.21
73453;BME280;61687;56.232;43.854;2023-10-31T09:39:50;100697.94;;;4.97;76.55
73453;BME280;61687;56.232;43.854;2023-10-31T09:42:16;100695.22;;;4.88;76.69
73453;BME280;61687;56.232;43.854;2023-10-31T09:44:42;100693.63;;;5.05;76.28
73453;BME280;61687;56.232;43.854;2023-10-31T09:47:08;100690.41;;;4.85;76.33
73453;BME280;61687;56.232;43.854;2023-10-31T09:49:34;100697.78;;;4.84;76.51
73453;BME280;61687;56.232;43.854;2023-10-31T09:52:00;100693.16;;;5.03;75.99
73453;BME280;61687;56.232;43.854;2023-10-31T09:54:26;100687.22;;;4.92;75.93
73453;BME280;61687;56.232;43.854;2023-10-31T09:56:52;100697.16;;;5.05;75.99
73453;BME280;61687;56.232;43.854;2023-10-31T09:59:18;100712.47;;;5.19;75.69
73453;BME280;61687;56.232;43.854;2023-10-31T10:01:44;100715.69;;;5.21;75.56
73453;BME280;61687;56.232;43.854;2023-10-31T10:04:10;100727.03;;;5.32;75.28
73453;BME280;61687;56.232;43.854;2023-10-31T10:06:48;100723.34;;;5.19;75.74
73453;BME280;61687;56.232;43.854;2023-10-31T10:09:15;100719.03;;;5.26;75.59
73453;BME280;61687;56.232;43.854;2023-10-31T10:11:41;100734.53;;;5.26;75.69
73453;BME280;61687;56.232;43.854;2023-10-31T10:14:07;100724.94;;;5.37;75.63
73453;BME280;61687;56.232;43.854;2023-10-31T10:16:35;100731.19;;;5.38;75.38
73453;BME280;61687;56.232;43.854;2023-10-31T10:19:20;100721.44;;;5.10;75.79
73453;BME280;61687;56.232;43.854;2023-10-31T10:21:51;100711.50;;;4.97;76.16
73453;BME280;61687;56.232;43.854;2023-10-31T10:24:19;100720.78;;;5.13;76.02
73453;BME280;61687;56.232;43.854;2023-10-31T10:26:45;100722.56;;;5.18;75.95
73453;BME280;61687;56.232;43.854;2023-10-31T10:29:11;100717.44;;;5.25;75.57
73453;BME280;61687;56.232;43.854;2023-10-31T10:31:37;100730.69;;;5.09;75.90
73453;BME280;61687;56.232;43.854;2023-10-31T10:34:03;100729.28;;;5.03;75.98
73453;BME280;61687;56.232;43.854;2023-10-31T10:36:32;100736.63;;;5.11;76.12
73453;BME280;61687;56.232;43.854;2023-10-31T10:38:58;100732.78;;;5.04;76.19
73453;BME280;61687;56.232;43.854;2023-10-31T10:41:26;100734.84;;;4.98;76.16
73453;BME280;61687;56.232;43.854;2023-10-31T10:44:04;100757.22;;;4.95;76.56
73453;BME280;61687;56.232;43.854;2023-10-31T10:46:34;100759.63;;;4.96;76.52
73453;BME280;61687;56.232;43.854;2023-10-31T10:49:04;100769.19;;;4.94;76.60
73453;BME280;61687;56.232;43.854;2023-10-31T10:51:52;100762.81;;;5.07;76.43
73453;BME280;61687;56.232;43.854;2023-10-31T10:57:05;100787.09;;;5.12;75.90
73453;BME280;61687;56.232;43.854;2023-10-31T10:59:41;100779.59;;;5.09;76.09
73453;BME280;61687;56.232;43.854;2023-10-31T11:02:08;100790.00;;;5.16;75.69
73453;BME280;61687;56.232;43.854;2023-10-31T11:04:37;100788.88;;;5.08;76.01
73453;BME280;61687;56.232;43.854;2023-10-31T11:07:02;100786.16;;;5.08;75.88
73453;BME280;61687;56.232;43.854;2023-10-31T11:09:30;100791.91;;;5.15;76.13
73453;BME280;61687;56.232;43.854;2023-10-31T11:11:57;100796.69;;;5.01;76.31
73453;BME280;61687;56.232;43.854;2023-10-31T11:14:25;100800.34;;;4.87;76.83
73453;BME280;61687;56.232;43.854;2023-10-31T11:16:53;100805.78;;;4.87;76.93
73453;BME280;61687;56.232;43.854;2023-10-31T11:19:20;100799.53;;;4.78;77.29
73453;BME280;61687;56.232;43.854;2023-10-31T11:22:08;100802.88;;;4.84;77.06
73453;BME280;61687;56.232;43.854;2023-10-31T11:24:38;100805.09;;;4.73;77.33
73453;BME280;61687;56.232;43.854;2023-10-31T11:27:06;100801.63;;;4.81;77.14
73453;BME280;61687;56.232;43.854;2023-10-31T11:29:32;100810.56;;;4.91;76.74
73453;BME280;61687;56.232;43.854;2023-10-31T11:31:59;100818.38;;;4.83;76.97
73453;BME280;61687;56.232;43.854;2023-10-31T11:34:29;100822.34;;;4.77;77.33
73453;BME280;61687;56.232;43.854;2023-10-31T11:40:15;100840.25;;;4.78;77.24
73453;BME280;61687;56.232;43.854;2023-10-31T11:42:42;100841.22;;;4.82;77.20
73453;BME280;61687;56.232;43.854;2023-10-31T11:45:08;100852.91;;;4.92;77.01
73453;BME280;61687;56.232;43.854;2023-10-31T11:50:12;100859.31;;;4.96;76.68
73453;BME280;61687;56.232;43.854;2023-10-31T11:52:39;100856.13;;;5.03;76.61
73453;BME280;61687;56.232;43.854;2023-10-31T11:55:09;100856.31;;;5.15;76.26
73453;BME280;61687;56.232;43.854;2023-10-31T11:57:35;100866.38;;;5.14;76.23
73453;BME280;61687;56.232;43.854;2023-10-31T12:00:02;100870.22;;;5.13;76.35
73453;BME280;61687;56.232;43.854;2023-10-31T12:02:38;100869.56;;;5.08;76.40
73453;BME280;61687;56.232;43.854;2023-10-31T12:05:11;100877.06;;;5.02;76.44
73453;BME280;61687;56.232;43.854;2023-10-31T12:07:46;100879.59;;;4.98;76.51
73453;BME280;61687;56.232;43.854;2023-10-31T12:10:13;100874.84;;;5.04;76.16
73453;BME280;61687;56.232;43.854;2023-10-31T12:12:47;100866.66;;;4.95;76.40
73453;BME280;61687;56.232;43.854;2023-10-31T12:15:13;100871.63;;;5.02;76.35
73453;BME280;61687;56.232;43.854;2023-10-31T12:17:40;100878.66;;;5.03;76.29
73453;BME280;61687;56.232;43.854;2023-10-31T12:20:07;100886.47;;;4.96;76.33
73453;BME280;61687;56.232;43.854;2023-10-31T12:22:34;100882.78;;;4.92;76.31
73453;BME280;61687;56.232;43.854;2023-10-31T12:25:05;100886.94;;;4.89;76.52
73453;BME280;61687;56.232;43.854;2023-10-31T12:27:47;100887.72;;;4.90;76.83
73453;BME280;61687;56.232;43.854;2023-10-31T12:30:17;100896.22;;;4.97;76.48
73453;BME280;61687;56.232;43.854;2023-10-31T12:32:44;100897.53;;;5.08;76.39
73453;BME280;61687;56.232;43.854;2023-10-31T12:35:12;100885.41;;;5.14;76.02
73453;BME280;61687;56.232;43.854;2023-10-31T12:37:46;100888.47;;;5.22;75.78
73453;BME280;61687;56.232;43.854;2023-10-31T12:40:16;100893.13;;;5.30;75.50
73453;BME280;61687;56.232;43.854;2023-10-31T12:42:46;100895.19;;;5.33;75.27
73453;BME280;61687;56.232;43.854;2023-10-31T12:45:13;100903.19;;;5.38;75.22
73453;BME280;61687;56.232;43.854;2023-10-31T12:47:40;100904.16;;;5.34;75.15
73453;BME280;61687;56.232;43.854;2023-10-31T12:50:12;100902.38;;;5.29;75.14
73453;BME280;61687;56.232;43.854;2023-10-31T12:55:15;100907.50;;;5.39;75.05
73453;BME280;61687;56.232;43.854;2023-10-31T12:57:41;100911.69;;;5.46;74.67
73453;BME280;61687;56.232;43.854;2023-10-31T13:00:08;100912.66;;;5.50;74.80
73453;BME280;61687;56.232;43.854;2023-10-31T13:02:36;100904.66;;;5.44;74.55